sensor_id;sensor_type;location;lat;lon;timestamp;P1;durP1;ratioP1;P2;durP2;ratioP2
803;SDS011;25687;49.976;8.240;2024-02-26T00:01:08;1.77;;;1.50;;
803;SDS011;25687;49.976;8.240;2024-02-26T00:03:33;1.70;;;1.50;;
803;SDS011;25687;49.976;8.240;2024-02-26T00:06:00;2.00;;;1.60;;
803;SDS011;25687;49.976;8.240;2024-02-26T00:08:27;1.47;;;1.37;;
803;SDS011;25687;49.976;8.240;2024-02-26T00:10:53;1.83;;;1.60;;
803;SDS011;25687;49.976;8.240;2024-02-26T00:13:18;1.90;;;1.40;;
803;SDS011;25687;49.976;8.240;2024-02-26T00:15:45;1.73;;;1.63;;
803;SDS011;25687;49.976;8.240;2024-02-26T00:18:10;1.93;;;1.57;;
803;SDS011;25687;49.976;8.240;2024-02-26T00:20:36;1.83;;;1.53;;
803;SDS011;25687;49.976;8.240;2024-02-26T00:23:01;2.07;;;1.50;;
803;SDS011;25687;49.976;8.240;2024-02-26T00:25:26;1.67;;;1.53;;
803;SDS011;25687;49.976;8.240;2024-02-26T00:27:51;2.43;;;1.67;;
803;SDS011;25687;49.976;8.240;2024-02-26T00:30:17;1.87;;;1.67;;
803;SDS011;25687;49.976;8.240;2024-02-26T00:32:42;1.53;;;1.43;;
803;SDS011;25687;49.976;8.240;2024-02-26T00:35:07;2.33;;;1.50;;
803;SDS011;25687;49.976;8.240;2024-02-26T00:37:34;1.47;;;1.27;;
803;SDS011;25687;49.976;8.240;2024-02-26T00:40:00;3.23;;;1.57;;
803;SDS011;25687;49.976;8.240;2024-02-26T00:42:25;1.70;;;1.43;;
803;SDS011;25687;49.976;8.240;2024-02-26T00:44:50;1.60;;;1.50;;
803;SDS011;25687;49.976;8.240;2024-02-26T00:47:16;1.63;;;1.53;;
803;SDS011;25687;49.976;8.240;2024-02-26T00:49:41;1.40;;;1.30;;
803;SDS011;25687;49.976;8.240;2024-02-26T00:52:06;5.67;;;1.50;;
803;SDS011;25687;49.976;8.240;2024-02-26T00:54:31;1.97;;;1.60;;
803;SDS011;25687;49.976;8.240;2024-02-26T00:56:57;1.77;;;1.57;;
803;SDS011;25687;49.976;8.240;2024-02-26T00:59:22;2.40;;;1.70;;
803;SDS011;25687;49.976;8.240;2024-02-26T01:01:47;9.13;;;2.33;;
803;SDS011;25687;49.976;8.240;2024-02-26T01:04:13;2.60;;;1.80;;
803;SDS011;25687;49.976;8.240;2024-02-26T01:06:38;1.53;;;1.40;;
803;SDS011;25687;49.976;8.240;2024-02-26T01:09:03;1.77;;;1.60;;
803;SDS011;25687;49.976;8.240;2024-02-26T01:11:28;2.40;;;1.90;;
803;SDS011;25687;49.976;8.240;2024-02-26T01:13:54;1.97;;;1.77;;
803;SDS011;25687;49.976;8.240;2024-02-26T01:16:21;1.93;;;1.73;;
803;SDS011;25687;49.976;8.240;2024-02-26T01:18:47;2.00;;;1.70;;
803;SDS011;25687;49.976;8.240;2024-02-26T01:21:13;1.67;;;1.57;;
803;SDS011;25687;49.976;8.240;2024-02-26T01:23:38;1.60;;;1.50;;
803;SDS011;25687;49.976;8.240;2024-02-26T01:26:03;1.77;;;1.27;;
803;SDS011;25687;49.976;8.240;2024-02-26T01:28:29;1.73;;;1.63;;
803;SDS011;25687;49.976;8.240;2024-02-26T01:30:55;2.67;;;1.70;;
803;SDS011;25687;49.976;8.240;2024-02-26T01:33:20;1.73;;;1.63;;
803;SDS011;25687;49.976;8.240;2024-02-26T01:35:45;2.00;;;1.70;;
803;SDS011;25687;49.976;8.240;2024-02-26T01:38:11;2.43;;;1.70;;
803;SDS011;25687;49.976;8.240;2024-02-26T01:40:37;1.67;;;1.30;;
803;SDS011;25687;49.976;8.240;2024-02-26T01:43:02;1.70;;;1.60;;
803;SDS011;25687;49.976;8.240;2024-02-26T01:45:27;1.70;;;1.57;;
803;SDS011;25687;49.976;8.240;2024-02-26T01:47:53;2.20;;;2.00;;
803;SDS011;25687;49.976;8.240;2024-02-26T01:50:19;2.60;;;1.60;;
803;SDS011;25687;49.976;8.240;2024-02-26T01:52:49;2.53;;;1.73;;
803;SDS011;25687;49.976;8.240;2024-02-26T01:55:15;1.80;;;1.70;;
803;SDS011;25687;49.976;8.240;2024-02-26T01:57:43;2.17;;;1.97;;
803;SDS011;25687;49.976;8.240;2024-02-26T02:00:10;2.63;;;1.63;;
803;SDS011;25687;49.976;8.240;2024-02-26T02:02:36;1.83;;;1.73;;
803;SDS011;25687;49.976;8.240;2024-02-26T02:05:03;3.33;;;2.00;;
803;SDS011;25687;49.976;8.240;2024-02-26T02:07:30;3.53;;;1.90;;
803;SDS011;25687;49.976;8.240;2024-02-26T02:09:56;1.90;;;1.60;;
803;SDS011;25687;49.976;8.240;2024-02-26T02:12:21;2.27;;;1.73;;
803;SDS011;25687;49.976;8.240;2024-02-26T02:14:47;1.80;;;1.70;;
803;SDS011;25687;49.976;8.240;2024-02-26T02:17:12;3.03;;;2.00;;
803;SDS011;25687;49.976;8.240;2024-02-26T02:19:37;2.10;;;1.90;;
803;SDS011;25687;49.976;8.240;2024-02-26T02:22:03;1.60;;;1.50;;
803;SDS011;25687;49.976;8.240;2024-02-26T02:24:28;2.03;;;1.70;;
803;SDS011;25687;49.976;8.240;2024-02-26T02:26:53;1.95;;;1.65;;
803;SDS011;25687;49.976;8.240;2024-02-26T02:29:19;1.67;;;1.40;;
803;SDS011;25687;49.976;8.240;2024-02-26T02:31:44;2.63;;;1.90;;
803;SDS011;25687;49.976;8.240;2024-02-26T02:34:10;2.43;;;1.80;;
803;SDS011;25687;49.976;8.240;2024-02-26T02:36:47;4.30;;;2.13;;
803;SDS011;25687;49.976;8.240;2024-02-26T02:39:13;1.50;;;1.40;;
803;SDS011;25687;49.976;8.240;2024-02-26T02:41:40;2.40;;;1.87;;
803;SDS011;25687;49.976;8.240;2024-02-26T02:44:05;1.90;;;1.80;;
803;SDS011;25687;49.976;8.240;2024-02-26T02:46:30;2.57;;;1.70;;
803;SDS011;25687;49.976;8.240;2024-02-26T02:48:58;1.70;;;1.57;;
803;SDS011;25687;49.976;8.240;2024-02-26T02:51:23;2.10;;;1.80;;
803;SDS011;25687;49.976;8.240;2024-02-26T02:53:49;2.23;;;1.70;;
803;SDS011;25687;49.976;8.240;2024-02-26T02:56:14;2.00;;;1.80;;
803;SDS011;25687;49.976;8.240;2024-02-26T02:58:39;2.03;;;1.60;;
803;SDS011;25687;49.976;8.240;2024-02-26T03:01:04;3.87;;;1.47;;
803;SDS011;25687;49.976;8.240;2024-02-26T03:03:30;3.87;;;2.10;;
803;SDS011;25687;49.976;8.240;2024-02-26T03:05:55;2.43;;;1.90;;
803;SDS011;25687;49.976;8.240;2024-02-26T03:08:21;2.30;;;1.73;;
803;SDS011;25687;49.976;8.240;2024-02-26T03:10:46;2.70;;;2.10;;
803;SDS011;25687;49.976;8.240;2024-02-26T03:13:11;2.30;;;2.10;;
803;SDS011;25687;49.976;8.240;2024-02-26T03:15:36;2.57;;;1.63;;
803;SDS011;25687;49.976;8.240;2024-02-26T03:18:02;2.93;;;1.80;;
803;SDS011;25687;49.976;8.240;2024-02-26T03:20:27;1.63;;;1.53;;
803;SDS011;25687;49.976;8.240;2024-02-26T03:22:52;4.50;;;1.77;;
803;SDS011;25687;49.976;8.240;2024-02-26T03:25:18;2.07;;;1.87;;
803;SDS011;25687;49.976;8.240;2024-02-26T03:27:43;2.70;;;2.00;;
803;SDS011;25687;49.976;8.240;2024-02-26T03:30:09;3.40;;;2.10;;
803;SDS011;25687;49.976;8.240;2024-02-26T03:32:35;3.10;;;2.00;;
803;SDS011;25687;49.976;8.240;2024-02-26T03:35:00;1.67;;;1.50;;
803;SDS011;25687;49.976;8.240;2024-02-26T03:37:25;3.93;;;1.80;;
803;SDS011;25687;49.976;8.240;2024-02-26T03:39:50;2.87;;;2.10;;
803;SDS011;25687;49.976;8.240;2024-02-26T03:42:16;2.13;;;1.93;;
803;SDS011;25687;49.976;8.240;2024-02-26T03:44:42;2.53;;;2.17;;
803;SDS011;25687;49.976;8.240;2024-02-26T03:47:07;2.47;;;1.80;;
803;SDS011;25687;49.976;8.240;2024-02-26T03:49:32;3.67;;;2.23;;
803;SDS011;25687;49.976;8.240;2024-02-26T03:51:57;4.87;;;2.50;;
803;SDS011;25687;49.976;8.240;2024-02-26T03:54:23;4.23;;;2.00;;
803;SDS011;25687;49.976;8.240;2024-02-26T03:56:48;3.10;;;1.90;;
803;SDS011;25687;49.976;8.240;2024-02-26T03:59:13;3.60;;;2.30;;
803;SDS011;25687;49.976;8.240;2024-02-26T04:01:39;3.17;;;2.57;;
803;SDS011;25687;49.976;8.240;2024-02-26T04:04:04;4.20;;;2.43;;
803;SDS011;25687;49.976;8.240;2024-02-26T04:06:29;4.20;;;2.60;;
803;SDS011;25687;49.976;8.240;2024-02-26T04:08:54;4.70;;;2.27;;
803;SDS011;25687;49.976;8.240;2024-02-26T04:11:19;2.50;;;2.30;;
803;SDS011;25687;49.976;8.240;2024-02-26T04:13:45;7.50;;;2.30;;
803;SDS011;25687;49.976;8.240;2024-02-26T04:16:11;5.30;;;2.57;;
803;SDS011;25687;49.976;8.240;2024-02-26T04:18:37;4.03;;;2.50;;
803;SDS011;25687;49.976;8.240;2024-02-26T04:21:03;4.43;;;2.40;;
803;SDS011;25687;49.976;8.240;2024-02-26T04:23:30;2.43;;;2.23;;
803;SDS011;25687;49.976;8.240;2024-02-26T04:25:55;2.70;;;2.50;;
803;SDS011;25687;49.976;8.240;2024-02-26T04:28:20;3.30;;;2.27;;
803;SDS011;25687;49.976;8.240;2024-02-26T04:30:47;3.57;;;2.57;;
803;SDS011;25687;49.976;8.240;2024-02-26T04:33:13;2.93;;;2.40;;
803;SDS011;25687;49.976;8.240;2024-02-26T04:35:38;2.90;;;2.70;;
803;SDS011;25687;49.976;8.240;2024-02-26T04:38:03;4.07;;;2.70;;
803;SDS011;25687;49.976;8.240;2024-02-26T04:40:29;6.07;;;2.80;;
803;SDS011;25687;49.976;8.240;2024-02-26T04:42:54;2.60;;;2.37;;
803;SDS011;25687;49.976;8.240;2024-02-26T04:45:19;4.40;;;2.77;;
803;SDS011;25687;49.976;8.240;2024-02-26T04:47:44;3.80;;;3.10;;
803;SDS011;25687;49.976;8.240;2024-02-26T04:50:10;3.23;;;2.80;;
803;SDS011;25687;49.976;8.240;2024-02-26T04:52:36;2.93;;;2.47;;
803;SDS011;25687;49.976;8.240;2024-02-26T04:55:01;3.53;;;2.63;;
803;SDS011;25687;49.976;8.240;2024-02-26T04:57:27;2.60;;;2.30;;
803;SDS011;25687;49.976;8.240;2024-02-26T04:59:53;2.83;;;2.53;;
803;SDS011;25687;49.976;8.240;2024-02-26T05:02:18;3.43;;;3.13;;
803;SDS011;25687;49.976;8.240;2024-02-26T05:04:43;4.73;;;2.87;;
803;SDS011;25687;49.976;8.240;2024-02-26T05:07:08;2.87;;;2.67;;
803;SDS011;25687;49.976;8.240;2024-02-26T05:09:34;3.43;;;2.70;;
803;SDS011;25687;49.976;8.240;2024-02-26T05:11:59;3.77;;;3.17;;
803;SDS011;25687;49.976;8.240;2024-02-26T05:14:25;3.10;;;2.70;;
803;SDS011;25687;49.976;8.240;2024-02-26T05:16:50;4.53;;;3.23;;
803;SDS011;25687;49.976;8.240;2024-02-26T05:19:15;3.33;;;3.03;;
803;SDS011;25687;49.976;8.240;2024-02-26T05:21:41;3.70;;;3.00;;
803;SDS011;25687;49.976;8.240;2024-02-26T05:24:07;3.93;;;3.03;;
803;SDS011;25687;49.976;8.240;2024-02-26T05:26:32;7.27;;;3.20;;
803;SDS011;25687;49.976;8.240;2024-02-26T05:28:58;5.50;;;3.00;;
803;SDS011;25687;49.976;8.240;2024-02-26T05:31:24;4.37;;;2.90;;
803;SDS011;25687;49.976;8.240;2024-02-26T05:33:50;7.00;;;3.53;;
803;SDS011;25687;49.976;8.240;2024-02-26T05:36:19;4.33;;;3.10;;
803;SDS011;25687;49.976;8.240;2024-02-26T05:38:46;3.87;;;3.47;;
803;SDS011;25687;49.976;8.240;2024-02-26T05:41:11;4.70;;;2.90;;
803;SDS011;25687;49.976;8.240;2024-02-26T05:43:36;4.07;;;3.30;;
803;SDS011;25687;49.976;8.240;2024-02-26T05:46:02;4.10;;;3.00;;
803;SDS011;25687;49.976;8.240;2024-02-26T05:48:27;3.23;;;2.90;;
803;SDS011;25687;49.976;8.240;2024-02-26T05:50:53;4.97;;;4.00;;
803;SDS011;25687;49.976;8.240;2024-02-26T05:53:18;5.17;;;3.30;;
803;SDS011;25687;49.976;8.240;2024-02-26T05:55:43;5.23;;;3.83;;
803;SDS011;25687;49.976;8.240;2024-02-26T05:58:08;4.87;;;3.43;;
803;SDS011;25687;49.976;8.240;2024-02-26T06:00:34;4.53;;;2.83;;
803;SDS011;25687;49.976;8.240;2024-02-26T06:02:59;3.73;;;3.07;;
803;SDS011;25687;49.976;8.240;2024-02-26T06:05:24;5.93;;;3.40;;
803;SDS011;25687;49.976;8.240;2024-02-26T06:07:50;3.37;;;3.07;;
803;SDS011;25687;49.976;8.240;2024-02-26T06:10:15;5.80;;;3.60;;
803;SDS011;25687;49.976;8.240;2024-02-26T06:12:40;3.90;;;3.47;;
803;SDS011;25687;49.976;8.240;2024-02-26T06:15:06;5.90;;;3.27;;
803;SDS011;25687;49.976;8.240;2024-02-26T06:17:32;4.70;;;3.40;;
803;SDS011;25687;49.976;8.240;2024-02-26T06:19:58;4.10;;;3.70;;
803;SDS011;25687;49.976;8.240;2024-02-26T06:22:24;4.77;;;3.67;;
803;SDS011;25687;49.976;8.240;2024-02-26T06:24:50;4.33;;;3.30;;
803;SDS011;25687;49.976;8.240;2024-02-26T06:27:15;3.57;;;3.27;;
803;SDS011;25687;49.976;8.240;2024-02-26T06:29:40;3.70;;;3.40;;
803;SDS011;25687;49.976;8.240;2024-02-26T06:32:06;7.27;;;4.23;;
803;SDS011;25687;49.976;8.240;2024-02-26T06:34:31;13.70;;;7.23;;
803;SDS011;25687;49.976;8.240;2024-02-26T06:36:56;4.03;;;3.63;;
803;SDS011;25687;49.976;8.240;2024-02-26T06:39:21;9.27;;;4.03;;
803;SDS011;25687;49.976;8.240;2024-02-26T06:41:47;7.03;;;4.43;;
803;SDS011;25687;49.976;8.240;2024-02-26T06:44:13;6.67;;;4.10;;
803;SDS011;25687;49.976;8.240;2024-02-26T06:46:39;10.13;;;4.63;;
803;SDS011;25687;49.976;8.240;2024-02-26T06:49:04;6.20;;;4.33;;
803;SDS011;25687;49.976;8.240;2024-02-26T06:51:30;8.83;;;4.63;;
803;SDS011;25687;49.976;8.240;2024-02-26T06:53:55;4.83;;;4.00;;
803;SDS011;25687;49.976;8.240;2024-02-26T06:56:20;5.43;;;4.70;;
803;SDS011;25687;49.976;8.240;2024-02-26T06:58:45;6.67;;;4.60;;
803;SDS011;25687;49.976;8.240;2024-02-26T07:01:12;6.83;;;6.13;;
803;SDS011;25687;49.976;8.240;2024-02-26T07:03:39;8.03;;;4.60;;
803;SDS011;25687;49.976;8.240;2024-02-26T07:06:05;6.77;;;4.80;;
803;SDS011;25687;49.976;8.240;2024-02-26T07:08:31;5.93;;;4.73;;
803;SDS011;25687;49.976;8.240;2024-02-26T07:10:57;5.03;;;4.43;;
803;SDS011;25687;49.976;8.240;2024-02-26T07:13:22;6.07;;;4.73;;
803;SDS011;25687;49.976;8.240;2024-02-26T07:15:48;6.33;;;5.50;;
803;SDS011;25687;49.976;8.240;2024-02-26T07:18:13;8.40;;;5.23;;
803;SDS011;25687;49.976;8.240;2024-02-26T07:20:38;6.63;;;5.30;;
803;SDS011;25687;49.976;8.240;2024-02-26T07:23:04;6.93;;;5.57;;
803;SDS011;25687;49.976;8.240;2024-02-26T07:25:29;8.07;;;5.40;;
803;SDS011;25687;49.976;8.240;2024-02-26T07:27:54;5.87;;;5.27;;
803;SDS011;25687;49.976;8.240;2024-02-26T07:30:19;9.10;;;5.67;;
803;SDS011;25687;49.976;8.240;2024-02-26T07:32:45;6.13;;;5.20;;
803;SDS011;25687;49.976;8.240;2024-02-26T07:35:10;7.30;;;5.60;;
803;SDS011;25687;49.976;8.240;2024-02-26T07:37:35;7.73;;;5.20;;
803;SDS011;25687;49.976;8.240;2024-02-26T07:40:01;6.93;;;5.47;;
803;SDS011;25687;49.976;8.240;2024-02-26T07:42:26;10.37;;;5.30;;
803;SDS011;25687;49.976;8.240;2024-02-26T07:44:52;6.57;;;5.30;;
803;SDS011;25687;49.976;8.240;2024-02-26T07:47:17;7.83;;;5.33;;
803;SDS011;25687;49.976;8.240;2024-02-26T07:49:43;8.97;;;5.40;;
803;SDS011;25687;49.976;8.240;2024-02-26T07:52:08;5.83;;;5.00;;
803;SDS011;25687;49.976;8.240;2024-02-26T07:54:33;8.13;;;5.67;;
803;SDS011;25687;49.976;8.240;2024-02-26T07:56:59;7.23;;;6.07;;
803;SDS011;25687;49.976;8.240;2024-02-26T07:59:24;6.57;;;5.50;;
803;SDS011;25687;49.976;8.240;2024-02-26T08:01:50;8.37;;;5.93;;
803;SDS011;25687;49.976;8.240;2024-02-26T08:04:16;9.50;;;6.17;;
803;SDS011;25687;49.976;8.240;2024-02-26T08:06:41;6.20;;;5.43;;
803;SDS011;25687;49.976;8.240;2024-02-26T08:09:07;8.53;;;5.60;;
803;SDS011;25687;49.976;8.240;2024-02-26T08:11:33;7.50;;;5.47;;
803;SDS011;25687;49.976;8.240;2024-02-26T08:13:58;6.27;;;5.30;;
803;SDS011;25687;49.976;8.240;2024-02-26T08:16:24;7.63;;;5.20;;
803;SDS011;25687;49.976;8.240;2024-02-26T08:18:49;8.30;;;6.03;;
803;SDS011;25687;49.976;8.240;2024-02-26T08:21:14;6.37;;;4.97;;
803;SDS011;25687;49.976;8.240;2024-02-26T08:23:40;8.57;;;5.37;;
803;SDS011;25687;49.976;8.240;2024-02-26T08:26:05;7.17;;;5.30;;
803;SDS011;25687;49.976;8.240;2024-02-26T08:28:32;8.40;;;5.60;;
803;SDS011;25687;49.976;8.240;2024-02-26T08:30:57;7.13;;;5.27;;
803;SDS011;25687;49.976;8.240;2024-02-26T08:33:23;5.37;;;4.83;;
803;SDS011;25687;49.976;8.240;2024-02-26T08:35:48;7.23;;;5.40;;
803;SDS011;25687;49.976;8.240;2024-02-26T08:38:13;6.23;;;5.10;;
803;SDS011;25687;49.976;8.240;2024-02-26T08:40:39;8.13;;;5.60;;
803;SDS011;25687;49.976;8.240;2024-02-26T08:43:04;6.80;;;6.03;;
803;SDS011;25687;49.976;8.240;2024-02-26T08:45:29;6.27;;;5.33;;
803;SDS011;25687;49.976;8.240;2024-02-26T08:47:55;8.63;;;5.97;;
803;SDS011;25687;49.976;8.240;2024-02-26T08:50:20;5.97;;;5.37;;
803;SDS011;25687;49.976;8.240;2024-02-26T08:52:45;10.83;;;5.63;;
803;SDS011;25687;49.976;8.240;2024-02-26T08:55:15;5.73;;;4.97;;
803;SDS011;25687;49.976;8.240;2024-02-26T08:57:40;8.97;;;5.93;;
803;SDS011;25687;49.976;8.240;2024-02-26T09:00:06;6.50;;;5.90;;
803;SDS011;25687;49.976;8.240;2024-02-26T09:02:32;8.50;;;5.93;;
803;SDS011;25687;49.976;8.240;2024-02-26T09:04:57;8.50;;;6.10;;
803;SDS011;25687;49.976;8.240;2024-02-26T09:07:22;8.10;;;5.73;;
803;SDS011;25687;49.976;8.240;2024-02-26T09:09:48;6.97;;;4.93;;
803;SDS011;25687;49.976;8.240;2024-02-26T09:12:13;9.90;;;6.17;;
803;SDS011;25687;49.976;8.240;2024-02-26T09:14:38;7.53;;;5.40;;
803;SDS011;25687;49.976;8.240;2024-02-26T09:17:04;7.40;;;5.93;;
803;SDS011;25687;49.976;8.240;2024-02-26T09:19:30;8.53;;;6.00;;
803;SDS011;25687;49.976;8.240;2024-02-26T09:21:56;7.90;;;6.40;;
803;SDS011;25687;49.976;8.240;2024-02-26T09:24:23;7.90;;;5.63;;
803;SDS011;25687;49.976;8.240;2024-02-26T09:26:49;6.03;;;4.60;;
803;SDS011;25687;49.976;8.240;2024-02-26T09:29:14;9.47;;;5.73;;
803;SDS011;25687;49.976;8.240;2024-02-26T09:31:39;7.37;;;5.73;;
803;SDS011;25687;49.976;8.240;2024-02-26T09:34:06;5.70;;;5.13;;
803;SDS011;25687;49.976;8.240;2024-02-26T09:36:32;7.70;;;5.70;;
803;SDS011;25687;49.976;8.240;2024-02-26T09:38:58;9.10;;;5.83;;
803;SDS011;25687;49.976;8.240;2024-02-26T09:41:23;7.43;;;5.33;;
803;SDS011;25687;49.976;8.240;2024-02-26T09:43:53;9.13;;;5.57;;
803;SDS011;25687;49.976;8.240;2024-02-26T09:46:21;8.27;;;5.97;;
803;SDS011;25687;49.976;8.240;2024-02-26T09:48:47;7.87;;;6.50;;
803;SDS011;25687;49.976;8.240;2024-02-26T09:51:13;6.07;;;5.20;;
803;SDS011;25687;49.976;8.240;2024-02-26T09:53:39;6.40;;;5.10;;
803;SDS011;25687;49.976;8.240;2024-02-26T09:56:09;6.20;;;5.43;;
803;SDS011;25687;49.976;8.240;2024-02-26T09:58:36;6.97;;;5.33;;
803;SDS011;25687;49.976;8.240;2024-02-26T10:01:02;7.57;;;5.93;;
803;SDS011;25687;49.976;8.240;2024-02-26T10:03:38;7.07;;;5.90;;
803;SDS011;25687;49.976;8.240;2024-02-26T10:06:07;7.67;;;6.07;;
803;SDS011;25687;49.976;8.240;2024-02-26T10:08:35;7.00;;;5.40;;
803;SDS011;25687;49.976;8.240;2024-02-26T10:11:02;8.73;;;5.70;;
803;SDS011;25687;49.976;8.240;2024-02-26T10:13:27;10.17;;;6.37;;
803;SDS011;25687;49.976;8.240;2024-02-26T10:15:53;6.40;;;5.60;;
803;SDS011;25687;49.976;8.240;2024-02-26T10:18:18;9.13;;;6.17;;
803;SDS011;25687;49.976;8.240;2024-02-26T10:20:58;8.27;;;5.77;;
803;SDS011;25687;49.976;8.240;2024-02-26T10:23:25;7.70;;;5.47;;
803;SDS011;25687;49.976;8.240;2024-02-26T10:25:53;8.17;;;5.90;;
803;SDS011;25687;49.976;8.240;2024-02-26T10:28:20;7.27;;;5.30;;
803;SDS011;25687;49.976;8.240;2024-02-26T10:30:45;9.57;;;6.03;;
803;SDS011;25687;49.976;8.240;2024-02-26T10:33:11;5.93;;;5.20;;
803;SDS011;25687;49.976;8.240;2024-02-26T10:35:38;6.17;;;5.30;;
803;SDS011;25687;49.976;8.240;2024-02-26T10:38:05;6.70;;;5.47;;
803;SDS011;25687;49.976;8.240;2024-02-26T10:40:32;6.60;;;5.30;;
803;SDS011;25687;49.976;8.240;2024-02-26T10:42:57;9.00;;;6.27;;
803;SDS011;25687;49.976;8.240;2024-02-26T10:45:23;9.33;;;6.20;;
803;SDS011;25687;49.976;8.240;2024-02-26T10:47:49;7.50;;;5.93;;
803;SDS011;25687;49.976;8.240;2024-02-26T10:50:14;7.63;;;5.60;;
803;SDS011;25687;49.976;8.240;2024-02-26T10:52:43;8.00;;;5.77;;
803;SDS011;25687;49.976;8.240;2024-02-26T10:55:08;9.30;;;6.23;;
803;SDS011;25687;49.976;8.240;2024-02-26T10:57:42;7.23;;;5.40;;
803;SDS011;25687;49.976;8.240;2024-02-26T11:00:10;6.53;;;5.57;;
803;SDS011;25687;49.976;8.240;2024-02-26T11:02:38;6.77;;;5.57;;
803;SDS011;25687;49.976;8.240;2024-02-26T11:05:05;7.03;;;5.50;;
803;SDS011;25687;49.976;8.240;2024-02-26T11:07:31;7.87;;;5.53;;
803;SDS011;25687;49.976;8.240;2024-02-26T11:09:59;5.90;;;5.27;;
803;SDS011;25687;49.976;8.240;2024-02-26T11:12:25;8.53;;;5.73;;
803;SDS011;25687;49.976;8.240;2024-02-26T11:14:53;7.50;;;5.70;;
803;SDS011;25687;49.976;8.240;2024-02-26T11:17:21;8.03;;;5.90;;
803;SDS011;25687;49.976;8.240;2024-02-26T11:19:48;9.63;;;6.13;;
803;SDS011;25687;49.976;8.240;2024-02-26T11:22:15;8.37;;;5.67;;
803;SDS011;25687;49.976;8.240;2024-02-26T11:24:40;8.27;;;6.30;;
803;SDS011;25687;49.976;8.240;2024-02-26T11:27:07;6.40;;;5.33;;
803;SDS011;25687;49.976;8.240;2024-02-26T11:29:47;9.53;;;6.40;;
803;SDS011;25687;49.976;8.240;2024-02-26T11:32:14;6.60;;;5.37;;
803;SDS011;25687;49.976;8.240;2024-02-26T11:34:40;7.70;;;5.37;;
803;SDS011;25687;49.976;8.240;2024-02-26T11:39:35;11.13;;;5.70;;
803;SDS011;25687;49.976;8.240;2024-02-26T11:42:07;7.37;;;5.97;;
803;SDS011;25687;49.976;8.240;2024-02-26T11:44:34;7.60;;;6.17;;
803;SDS011;25687;49.976;8.240;2024-02-26T11:47:09;6.87;;;5.30;;
803;SDS011;25687;49.976;8.240;2024-02-26T11:49:35;6.50;;;5.40;;
803;SDS011;25687;49.976;8.240;2024-02-26T11:52:00;9.37;;;5.50;;
803;SDS011;25687;49.976;8.240;2024-02-26T12:02:39;8.43;;;5.10;;
803;SDS011;25687;49.976;8.240;2024-02-26T12:07:39;7.13;;;5.77;;
803;SDS011;25687;49.976;8.240;2024-02-26T12:10:21;6.63;;;5.63;;
803;SDS011;25687;49.976;8.240;2024-02-26T12:12:49;6.20;;;5.33;;
803;SDS011;25687;49.976;8.240;2024-02-26T12:15:18;8.33;;;5.87;;
803;SDS011;25687;49.976;8.240;2024-02-26T12:17:48;8.50;;;4.97;;
803;SDS011;25687;49.976;8.240;2024-02-26T12:20:14;7.03;;;5.30;;
803;SDS011;25687;49.976;8.240;2024-02-26T12:22:42;8.03;;;5.07;;
803;SDS011;25687;49.976;8.240;2024-02-26T12:25:11;6.80;;;5.50;;
803;SDS011;25687;49.976;8.240;2024-02-26T12:27:38;5.63;;;4.70;;
803;SDS011;25687;49.976;8.240;2024-02-26T12:30:03;8.07;;;5.53;;
803;SDS011;25687;49.976;8.240;2024-02-26T12:32:29;6.67;;;4.97;;
803;SDS011;25687;49.976;8.240;2024-02-26T12:34:55;7.40;;;5.07;;
803;SDS011;25687;49.976;8.240;2024-02-26T12:37:21;5.83;;;5.27;;
803;SDS011;25687;49.976;8.240;2024-02-26T12:39:47;5.67;;;4.97;;
803;SDS011;25687;49.976;8.240;2024-02-26T12:42:12;5.97;;;5.27;;
803;SDS011;25687;49.976;8.240;2024-02-26T12:44:39;5.93;;;4.53;;
803;SDS011;25687;49.976;8.240;2024-02-26T12:47:04;7.03;;;5.20;;
803;SDS011;25687;49.976;8.240;2024-02-26T12:49:30;7.90;;;4.90;;
803;SDS011;25687;49.976;8.240;2024-02-26T12:51:55;5.53;;;4.57;;
803;SDS011;25687;49.976;8.240;2024-02-26T12:54:33;6.40;;;5.40;;
803;SDS011;25687;49.976;8.240;2024-02-26T12:57:04;8.97;;;5.07;;
803;SDS011;25687;49.976;8.240;2024-02-26T12:59:31;6.17;;;4.83;;
803;SDS011;25687;49.976;8.240;2024-02-26T13:01:59;6.07;;;5.20;;
803;SDS011;25687;49.976;8.240;2024-02-26T13:04:25;5.70;;;5.10;;
803;SDS011;25687;49.976;8.240;2024-02-26T13:06:52;5.67;;;4.60;;
803;SDS011;25687;49.976;8.240;2024-02-26T13:09:18;12.00;;;6.83;;
803;SDS011;25687;49.976;8.240;2024-02-26T13:11:44;9.33;;;4.70;;
803;SDS011;25687;49.976;8.240;2024-02-26T13:14:19;6.70;;;5.00;;
803;SDS011;25687;49.976;8.240;2024-02-26T13:17:00;6.30;;;5.03;;
803;SDS011;25687;49.976;8.240;2024-02-26T13:19:25;4.97;;;4.20;;
803;SDS011;25687;49.976;8.240;2024-02-26T13:21:52;5.90;;;4.33;;
803;SDS011;25687;49.976;8.240;2024-02-26T13:24:19;5.70;;;4.53;;
803;SDS011;25687;49.976;8.240;2024-02-26T13:26:45;5.37;;;4.87;;
803;SDS011;25687;49.976;8.240;2024-02-26T13:29:16;5.43;;;4.93;;
803;SDS011;25687;49.976;8.240;2024-02-26T13:31:42;5.53;;;4.57;;
803;SDS011;25687;49.976;8.240;2024-02-26T13:34:08;8.47;;;5.10;;
803;SDS011;25687;49.976;8.240;2024-02-26T13:36:33;6.73;;;4.63;;
803;SDS011;25687;49.976;8.240;2024-02-26T13:38:58;5.27;;;4.50;;
803;SDS011;25687;49.976;8.240;2024-02-26T13:41:24;6.87;;;4.80;;
803;SDS011;25687;49.976;8.240;2024-02-26T13:43:50;4.97;;;4.30;;
803;SDS011;25687;49.976;8.240;2024-02-26T13:46:15;6.27;;;4.93;;
803;SDS011;25687;49.976;8.240;2024-02-26T13:48:42;6.57;;;4.57;;
803;SDS011;25687;49.976;8.240;2024-02-26T13:51:07;4.80;;;4.20;;
803;SDS011;25687;49.976;8.240;2024-02-26T13:53:33;6.47;;;4.70;;
803;SDS011;25687;49.976;8.240;2024-02-26T13:55:58;5.63;;;5.13;;
803;SDS011;25687;49.976;8.240;2024-02-26T13:58:26;6.60;;;4.63;;
803;SDS011;25687;49.976;8.240;2024-02-26T14:00:52;5.57;;;4.67;;
803;SDS011;25687;49.976;8.240;2024-02-26T14:03:18;6.47;;;4.57;;
803;SDS011;25687;49.976;8.240;2024-02-26T14:05:44;7.90;;;4.53;;
803;SDS011;25687;49.976;8.240;2024-02-26T14:08:09;5.17;;;4.37;;
803;SDS011;25687;49.976;8.240;2024-02-26T14:10:34;6.07;;;4.43;;
803;SDS011;25687;49.976;8.240;2024-02-26T14:13:00;5.20;;;3.97;;
803;SDS011;25687;49.976;8.240;2024-02-26T14:15:27;12.13;;;4.60;;
803;SDS011;25687;49.976;8.240;2024-02-26T14:17:53;6.53;;;4.80;;
803;SDS011;25687;49.976;8.240;2024-02-26T14:20:22;6.67;;;4.93;;
803;SDS011;25687;49.976;8.240;2024-02-26T14:22:51;6.40;;;4.40;;
803;SDS011;25687;49.976;8.240;2024-02-26T14:25:18;6.30;;;5.07;;
803;SDS011;25687;49.976;8.240;2024-02-26T14:27:44;6.67;;;4.73;;
803;SDS011;25687;49.976;8.240;2024-02-26T14:30:10;7.93;;;5.07;;
803;SDS011;25687;49.976;8.240;2024-02-26T14:32:36;4.40;;;3.80;;
803;SDS011;25687;49.976;8.240;2024-02-26T14:35:02;5.60;;;4.87;;
803;SDS011;25687;49.976;8.240;2024-02-26T14:37:29;5.13;;;4.40;;
803;SDS011;25687;49.976;8.240;2024-02-26T14:39:55;6.27;;;4.70;;
803;SDS011;25687;49.976;8.240;2024-02-26T14:42:20;6.07;;;4.60;;
803;SDS011;25687;49.976;8.240;2024-02-26T14:44:45;6.63;;;4.80;;
803;SDS011;25687;49.976;8.240;2024-02-26T14:47:12;5.30;;;4.17;;
803;SDS011;25687;49.976;8.240;2024-02-26T14:49:38;4.03;;;3.60;;
803;SDS011;25687;49.976;8.240;2024-02-26T14:52:03;7.50;;;4.70;;
803;SDS011;25687;49.976;8.240;2024-02-26T14:54:29;4.97;;;4.33;;
803;SDS011;25687;49.976;8.240;2024-02-26T14:56:58;5.70;;;4.10;;
803;SDS011;25687;49.976;8.240;2024-02-26T14:59:23;5.37;;;4.50;;
803;SDS011;25687;49.976;8.240;2024-02-26T15:01:49;4.93;;;4.30;;
803;SDS011;25687;49.976;8.240;2024-02-26T15:04:14;4.80;;;4.23;;
803;SDS011;25687;49.976;8.240;2024-02-26T15:06:40;4.50;;;4.00;;
803;SDS011;25687;49.976;8.240;2024-02-26T15:09:05;5.80;;;4.57;;
803;SDS011;25687;49.976;8.240;2024-02-26T15:11:31;4.63;;;4.13;;
803;SDS011;25687;49.976;8.240;2024-02-26T15:13:57;5.90;;;4.40;;
803;SDS011;25687;49.976;8.240;2024-02-26T15:16:22;4.47;;;3.80;;
803;SDS011;25687;49.976;8.240;2024-02-26T15:18:47;10.23;;;4.73;;
803;SDS011;25687;49.976;8.240;2024-02-26T15:21:13;6.13;;;4.30;;